createdAt,value
2018-05-08T00:01:18.594Z,96.30
2018-05-08T00:03:46.093Z,96.20
2018-05-08T00:06:13.602Z,96.20
2018-05-08T00:08:41.117Z,96.40
2018-05-08T00:11:08.637Z,96.20
2018-05-08T00:13:36.153Z,96.50
2018-05-08T00:16:03.677Z,96.40
2018-05-08T00:18:31.250Z,96.40
2018-05-08T00:20:58.776Z,96.20
2018-05-08T00:23:26.333Z,96.10
2018-05-08T00:25:53.834Z,95.90
2018-05-08T00:28:21.343Z,95.90
2018-05-08T00:30:48.977Z,96.00
2018-05-08T00:33:17.262Z,96.20
2018-05-08T00:35:44.770Z,96.20
2018-05-08T00:38:12.334Z,96.40
2018-05-08T00:40:39.898Z,96.50
2018-05-08T00:43:07.414Z,96.70
2018-05-08T00:45:34.940Z,96.70
2018-05-08T00:48:03.250Z,96.90
2018-05-08T00:50:30.793Z,96.90
2018-05-08T00:52:58.320Z,96.80
2018-05-08T00:55:26.622Z,97.10
2018-05-08T00:57:54.127Z,97.10
2018-05-08T01:00:21.659Z,97.20
2018-05-08T01:02:49.203Z,97.40
2018-05-08T01:05:16.722Z,97.50
2018-05-08T01:07:44.222Z,97.60
2018-05-08T01:10:11.757Z,97.60
2018-05-08T01:12:40.089Z,97.60
2018-05-08T01:15:07.616Z,97.60
2018-05-08T01:17:35.112Z,97.60
2018-05-08T01:20:02.620Z,97.60
2018-05-08T01:22:30.921Z,97.40
2018-05-08T01:24:58.466Z,97.40
2018-05-08T01:27:25.971Z,97.50
2018-05-08T01:29:53.486Z,97.70
2018-05-08T01:32:21.762Z,97.80
2018-05-08T01:34:49.276Z,97.80
2018-05-08T01:37:16.804Z,97.90
2018-05-08T01:39:44.310Z,98.00
2018-05-08T01:42:11.814Z,98.10
2018-05-08T01:44:39.355Z,98.00
2018-05-08T01:47:07.268Z,98.30
2018-05-08T01:49:34.770Z,98.50
2018-05-08T01:52:02.319Z,98.40
2018-05-08T01:54:29.898Z,98.50
2018-05-08T01:56:57.441Z,98.50
2018-05-08T01:59:25.053Z,98.50
2018-05-08T02:01:53.372Z,98.50
2018-05-08T02:04:20.911Z,98.50
2018-05-08T02:06:48.434Z,98.60
2018-05-08T02:09:16.712Z,98.80
2018-05-08T02:11:44.228Z,98.80
2018-05-08T02:14:11.806Z,98.80
2018-05-08T02:16:39.338Z,98.90
2018-05-08T02:19:06.874Z,98.90
2018-05-08T02:21:34.420Z,98.90
2018-05-08T02:24:02.695Z,99.30
2018-05-08T02:26:30.230Z,99.00
2018-05-08T02:28:58.543Z,99.00
2018-05-08T02:31:26.043Z,99.00
2018-05-08T02:33:53.575Z,98.90
2018-05-08T02:36:21.103Z,98.90
2018-05-08T02:38:48.633Z,98.90
2018-05-08T02:41:16.190Z,98.80
2018-05-08T02:43:43.701Z,98.90
2018-05-08T02:46:11.971Z,98.90
2018-05-08T02:48:39.515Z,98.90
2018-05-08T02:51:07.027Z,99.00
2018-05-08T02:53:35.319Z,99.30
2018-05-08T02:56:02.840Z,99.30
2018-05-08T02:58:30.375Z,99.20
2018-05-08T03:00:57.918Z,99.20
2018-05-08T03:03:25.452Z,99.20
2018-05-08T03:05:52.956Z,99.20
2018-05-08T03:08:20.453Z,99.40
2018-05-08T03:10:47.994Z,99.30
2018-05-08T03:13:15.508Z,99.30
2018-05-08T03:15:43.013Z,99.40
2018-05-08T03:18:10.552Z,99.50
2018-05-08T03:20:38.068Z,99.40
2018-05-08T03:23:05.567Z,99.50
2018-05-08T03:25:33.089Z,99.50
2018-05-08T03:28:00.587Z,99.70
2018-05-08T03:30:28.111Z,99.60
2018-05-08T03:32:55.626Z,99.50
2018-05-08T03:35:23.913Z,99.50
2018-05-08T03:37:51.437Z,99.40
2018-05-08T03:40:19.993Z,99.90
2018-05-08T03:42:47.498Z,99.90
2018-05-08T03:45:15.030Z,99.90
2018-05-08T03:47:42.568Z,99.90
2018-05-08T03:50:10.846Z,99.90
2018-05-08T03:52:38.474Z,99.90
2018-05-08T03:55:07.707Z,99.90
2018-05-08T03:57:35.227Z,99.90
2018-05-08T04:00:03.530Z,99.90
2018-05-08T04:02:43.268Z,99.90
2018-05-08T04:05:23.283Z,99.90
2018-05-08T04:08:02.695Z,99.90
2018-05-08T04:10:30.221Z,99.90
2018-05-08T04:12:58.572Z,99.90
2018-05-08T04:15:26.179Z,99.90
2018-05-08T04:17:53.666Z,99.90
2018-05-08T04:20:21.190Z,99.90
2018-05-08T04:22:49.454Z,99.90
2018-05-08T04:25:17.474Z,99.90
2018-05-08T04:27:45.083Z,99.90
2018-05-08T04:30:12.585Z,99.90
2018-05-08T04:32:40.115Z,99.90
2018-05-08T04:35:08.390Z,99.90
2018-05-08T04:37:36.657Z,99.90
2018-05-08T04:40:04.952Z,99.90
2018-05-08T04:42:33.258Z,99.90
2018-05-08T04:45:00.767Z,99.90
2018-05-08T04:47:28.322Z,99.90
2018-05-08T04:49:55.895Z,99.90
2018-05-08T04:52:23.455Z,99.90
2018-05-08T04:54:51.758Z,99.90
2018-05-08T04:57:19.277Z,99.90
2018-05-08T04:59:46.773Z,99.90
2018-05-08T05:02:15.085Z,99.90
2018-05-08T05:04:42.594Z,99.80
2018-05-08T05:07:10.912Z,99.90
2018-05-08T05:09:38.455Z,99.80
2018-05-08T05:12:05.961Z,99.30
2018-05-08T05:14:33.463Z,99.30
2018-05-08T05:17:01.001Z,99.10
2018-05-08T05:19:28.519Z,99.20
2018-05-08T05:21:56.030Z,99.40
2018-05-08T05:24:24.429Z,98.70
2018-05-08T05:26:51.957Z,98.60
2018-05-08T05:29:19.474Z,98.60
2018-05-08T05:31:47.007Z,98.30
2018-05-08T05:34:14.727Z,98.00
2018-05-08T05:36:42.237Z,98.00
2018-05-08T05:39:09.749Z,97.90
2018-05-08T05:41:37.327Z,97.90
2018-05-08T05:44:04.904Z,97.70
2018-05-08T05:46:32.413Z,97.50
2018-05-08T05:48:59.938Z,97.60
2018-05-08T05:51:28.220Z,97.20
2018-05-08T05:53:55.748Z,97.10
2018-05-08T05:56:26.380Z,97.20
2018-05-08T05:58:53.909Z,96.70
2018-05-08T06:01:21.414Z,96.30
2018-05-08T06:03:48.957Z,96.30
2018-05-08T06:06:16.531Z,96.10
2018-05-08T06:08:44.055Z,96.60
2018-05-08T06:11:11.592Z,96.60
2018-05-08T06:13:39.101Z,96.10
2018-05-08T06:16:07.161Z,95.70
2018-05-08T06:18:34.863Z,95.40
2018-05-08T06:21:02.386Z,95.30
2018-05-08T06:23:29.900Z,95.60
2018-05-08T06:25:57.435Z,95.40
2018-05-08T06:28:25.006Z,94.30
2018-05-08T06:30:53.240Z,94.20
2018-05-08T06:33:20.773Z,94.20
2018-05-08T06:35:48.279Z,93.70
2018-05-08T06:38:15.798Z,94.20
2018-05-08T06:40:43.330Z,93.40
2018-05-08T06:43:11.601Z,93.30
2018-05-08T06:45:39.102Z,93.30
2018-05-08T06:48:06.653Z,93.10
2018-05-08T06:50:34.188Z,92.70
2018-05-08T06:53:02.472Z,92.30
2018-05-08T06:55:30.012Z,92.40
2018-05-08T06:57:57.522Z,92.80
2018-05-08T07:00:25.045Z,92.50
2018-05-08T07:02:52.679Z,91.80
2018-05-08T07:05:20.190Z,91.80
2018-05-08T07:07:47.734Z,91.90
2018-05-08T07:10:15.313Z,91.70
2018-05-08T07:12:42.818Z,91.80
2018-05-08T07:15:10.326Z,91.20
2018-05-08T07:17:37.858Z,91.10
2018-05-08T07:20:05.373Z,90.90
2018-05-08T07:22:32.902Z,90.80
2018-05-08T07:25:00.440Z,89.40
2018-05-08T07:27:27.947Z,90.30
2018-05-08T07:29:55.547Z,90.00
2018-05-08T07:32:23.025Z,89.80
2018-05-08T07:34:51.315Z,88.50
2018-05-08T07:37:18.852Z,88.40
2018-05-08T07:39:48.017Z,86.30
2018-05-08T07:42:15.520Z,86.10
2018-05-08T07:44:43.910Z,85.90
2018-05-08T07:47:11.457Z,85.90
2018-05-08T07:49:38.974Z,84.30
2018-05-08T07:52:07.429Z,82.10
2018-05-08T07:54:35.047Z,82.60
2018-05-08T07:57:03.322Z,84.10
2018-05-08T07:59:30.834Z,83.80
2018-05-08T08:01:58.959Z,84.30
2018-05-08T08:04:26.484Z,84.20
2018-05-08T08:06:54.007Z,81.80
2018-05-08T08:09:22.305Z,81.80
2018-05-08T08:11:50.593Z,83.80
2018-05-08T08:14:18.105Z,83.70
2018-05-08T08:16:45.683Z,80.80
2018-05-08T08:19:13.269Z,80.60
2018-05-08T08:21:40.797Z,80.30
2018-05-08T08:24:10.081Z,79.30
2018-05-08T08:26:37.600Z,79.30
2018-05-08T08:29:05.111Z,78.30
2018-05-08T08:31:32.640Z,78.40
2018-05-08T08:34:00.226Z,77.80
2018-05-08T08:36:27.686Z,76.80
2018-05-08T08:38:55.234Z,78.00
2018-05-08T08:41:22.786Z,76.50
2018-05-08T08:43:50.329Z,74.80
2018-05-08T08:46:17.856Z,75.10
2018-05-08T08:48:45.365Z,74.10
2018-05-08T08:51:13.040Z,76.80
2018-05-08T08:53:40.563Z,72.90
2018-05-08T08:56:08.117Z,70.00
2018-05-08T08:58:35.660Z,73.50
2018-05-08T09:01:03.180Z,69.20
2018-05-08T09:03:30.700Z,70.20
2018-05-08T09:05:58.992Z,68.60
2018-05-08T09:08:26.501Z,68.60
2018-05-08T09:10:54.078Z,67.60
2018-05-08T09:13:22.362Z,65.40
2018-05-08T09:15:49.867Z,65.30
2018-05-08T09:18:17.377Z,64.40
2018-05-08T09:20:44.911Z,64.40
2018-05-08T09:23:12.423Z,59.30
2018-05-08T09:25:39.946Z,59.40
2018-05-08T09:28:07.807Z,57.50
2018-05-08T09:30:35.350Z,55.60
2018-05-08T09:33:02.867Z,57.00
2018-05-08T09:35:30.450Z,55.10
2018-05-08T09:37:57.982Z,53.90
2018-05-08T09:40:25.515Z,52.50
2018-05-08T09:42:53.786Z,50.70
2018-05-08T09:45:21.295Z,50.60
2018-05-08T09:47:48.795Z,49.10
2018-05-08T09:50:16.330Z,50.50
2018-05-08T09:52:43.830Z,51.60
2018-05-08T09:55:12.105Z,53.70
2018-05-08T09:57:39.630Z,53.60
2018-05-08T10:00:07.205Z,50.60
2018-05-08T10:02:34.756Z,50.70
2018-05-08T10:05:02.268Z,47.40
2018-05-08T10:07:29.797Z,46.10
2018-05-08T10:09:57.308Z,47.40
2018-05-08T10:12:24.811Z,47.90
2018-05-08T10:14:52.334Z,47.90
2018-05-08T10:17:19.845Z,47.30
2018-05-08T10:19:47.366Z,44.10
2018-05-08T10:22:14.906Z,41.60
2018-05-08T10:24:42.416Z,40.20
2018-05-08T10:27:10.665Z,42.50
2018-05-08T10:29:38.189Z,41.20
2018-05-08T10:32:05.703Z,43.00
2018-05-08T10:34:33.203Z,39.30
2018-05-08T10:37:00.722Z,39.70
2018-05-08T10:39:28.255Z,38.90
2018-05-08T10:41:55.769Z,37.90
2018-05-08T10:44:24.055Z,35.00
2018-05-08T10:46:51.624Z,35.00
2018-05-08T10:49:19.139Z,33.70
2018-05-08T10:51:46.643Z,32.70
2018-05-08T10:54:14.940Z,33.90
2018-05-08T10:56:42.451Z,33.90
2018-05-08T10:59:09.959Z,28.30
2018-05-08T11:01:38.035Z,29.60
2018-05-08T11:04:05.586Z,27.50
2018-05-08T11:06:33.095Z,31.10
2018-05-08T11:09:00.728Z,30.20
2018-05-08T11:11:28.240Z,30.10
2018-05-08T11:13:55.757Z,29.40
2018-05-08T11:16:23.293Z,29.40
2018-05-08T11:18:50.794Z,32.20
2018-05-08T11:21:18.293Z,30.00
2018-05-08T11:23:46.581Z,31.10
2018-05-08T11:26:14.717Z,31.10
2018-05-08T11:28:42.249Z,30.00
2018-05-08T11:31:10.571Z,29.30
2018-05-08T11:33:38.085Z,29.20
2018-05-08T11:36:06.342Z,30.00
2018-05-08T11:38:33.867Z,28.70
2018-05-08T11:41:01.406Z,31.60
2018-05-08T11:43:28.910Z,30.50
2018-05-08T11:45:56.465Z,29.20
2018-05-08T11:48:24.748Z,28.90
2018-05-08T11:50:52.255Z,28.80
2018-05-08T11:53:19.785Z,28.40
2018-05-08T11:55:47.286Z,28.10
2018-05-08T11:58:14.802Z,29.00
2018-05-08T12:00:42.326Z,29.90
2018-05-08T12:03:10.591Z,28.60
2018-05-08T12:05:38.114Z,28.60
2018-05-08T12:08:05.648Z,29.20
2018-05-08T12:10:33.170Z,28.50
2018-05-08T12:13:00.712Z,28.70
2018-05-08T12:15:28.249Z,28.20
2018-05-08T12:17:55.745Z,27.50
2018-05-08T12:20:23.280Z,28.00
2018-05-08T12:22:50.821Z,29.50
2018-05-08T12:25:18.329Z,28.40
2018-05-08T12:27:45.869Z,28.20
2018-05-08T12:30:13.412Z,28.30
2018-05-08T12:32:40.931Z,28.30
2018-05-08T12:35:09.198Z,27.20
2018-05-08T12:37:37.205Z,27.20
2018-05-08T12:40:04.722Z,28.00
2018-05-08T12:42:32.259Z,27.90
2018-05-08T12:44:59.829Z,28.00
2018-05-08T12:47:27.341Z,27.70
2018-05-08T12:49:54.901Z,28.30
2018-05-08T12:52:22.445Z,27.90
2018-05-08T12:54:50.729Z,28.60
2018-05-08T12:57:18.253Z,28.60
2018-05-08T12:59:45.761Z,28.40
2018-05-08T13:02:14.025Z,28.40
2018-05-08T13:04:41.565Z,28.40
2018-05-08T13:07:09.117Z,29.40
2018-05-08T13:09:36.629Z,28.00
2018-05-08T13:12:04.194Z,29.60
2018-05-08T13:14:31.693Z,29.60
2018-05-08T13:16:59.225Z,30.70
2018-05-08T13:19:26.751Z,28.30
2018-05-08T13:21:54.267Z,29.00
2018-05-08T13:24:22.254Z,28.70
2018-05-08T13:26:49.751Z,30.30
2018-05-08T13:29:17.295Z,32.10
2018-05-08T13:31:45.587Z,31.10
2018-05-08T13:34:13.105Z,31.10
2018-05-08T13:36:40.682Z,33.10
2018-05-08T13:39:08.164Z,30.90
2018-05-08T13:41:35.714Z,30.50
2018-05-08T13:44:03.320Z,29.90
2018-05-08T13:46:30.819Z,30.50
2018-05-08T13:48:58.313Z,30.40
2018-05-08T13:51:25.832Z,29.90
2018-05-08T13:53:53.402Z,33.90
2018-05-08T13:56:21.611Z,31.20
2018-05-08T13:58:49.136Z,31.60
2018-05-08T14:01:16.642Z,30.50
2018-05-08T14:03:44.205Z,30.80
2018-05-08T14:06:11.748Z,32.10
2018-05-08T14:08:39.263Z,31.10
2018-05-08T14:11:06.781Z,29.80
2018-05-08T14:13:34.363Z,29.90
2018-05-08T14:16:01.871Z,30.40
2018-05-08T14:18:29.441Z,31.60
2018-05-08T14:20:56.962Z,31.70
2018-05-08T14:23:24.454Z,33.90
2018-05-08T14:25:51.962Z,31.40
2018-05-08T14:28:19.484Z,33.90
2018-05-08T14:30:47.760Z,30.80
2018-05-08T14:33:16.036Z,30.30
2018-05-08T14:35:43.576Z,30.30
2018-05-08T14:38:11.116Z,29.60
2018-05-08T14:40:38.663Z,28.10
2018-05-08T14:43:06.195Z,28.00
2018-05-08T14:45:33.746Z,28.30
2018-05-08T14:48:02.047Z,28.80
2018-05-08T14:50:29.579Z,28.80
2018-05-08T14:52:57.108Z,30.40
2018-05-08T14:55:24.607Z,28.20
2018-05-08T14:57:52.126Z,29.50
2018-05-08T15:00:19.645Z,29.80
2018-05-08T15:02:47.187Z,30.00
2018-05-08T15:05:14.683Z,29.90
2018-05-08T15:07:42.215Z,30.00
2018-05-08T15:10:09.749Z,30.60
2018-05-08T15:12:38.050Z,31.80
2018-05-08T15:15:05.589Z,31.80
2018-05-08T15:17:33.106Z,30.40
2018-05-08T15:20:00.623Z,31.10
2018-05-08T15:25:02.082Z,31.30
2018-05-08T15:27:30.410Z,32.60
2018-05-08T15:29:57.923Z,32.60
2018-05-08T15:32:26.863Z,32.80
2018-05-08T15:34:55.092Z,34.40
2018-05-08T15:37:23.371Z,33.20
2018-05-08T15:39:51.658Z,33.30
2018-05-08T15:42:19.201Z,33.20
2018-05-08T15:44:47.933Z,32.60
2018-05-08T15:47:15.476Z,32.50
2018-05-08T15:49:43.048Z,33.10
2018-05-08T15:52:10.654Z,34.10
2018-05-08T15:54:38.182Z,34.10
2018-05-08T15:57:05.706Z,34.10
2018-05-08T15:59:33.215Z,33.20
2018-05-08T16:02:00.797Z,32.90
2018-05-08T16:04:28.332Z,34.00
2018-05-08T16:06:57.488Z,33.80
2018-05-08T16:09:25.774Z,33.20
2018-05-08T16:11:53.366Z,33.20
2018-05-08T16:14:21.039Z,32.80
2018-05-08T16:16:48.575Z,33.30
2018-05-08T16:19:16.106Z,34.20
2018-05-08T16:21:43.630Z,34.70
2018-05-08T16:24:11.203Z,35.60
2018-05-08T16:26:38.706Z,37.30
2018-05-08T16:29:06.227Z,34.20
2018-05-08T16:31:33.786Z,36.10
2018-05-08T16:34:01.318Z,35.90
2018-05-08T16:36:28.827Z,34.80
2018-05-08T16:38:57.123Z,36.20
2018-05-08T16:41:24.685Z,36.10
2018-05-08T16:43:52.268Z,36.40
2018-05-08T16:46:19.832Z,37.70
2018-05-08T16:48:47.352Z,37.90
2018-05-08T16:51:16.362Z,35.50
2018-05-08T16:53:44.663Z,35.60
2018-05-08T16:56:12.185Z,35.50
2018-05-08T16:58:40.492Z,36.40
2018-05-08T17:01:08.942Z,36.40
2018-05-08T17:03:36.490Z,36.90
2018-05-08T17:06:04.011Z,37.10
2018-05-08T17:08:31.566Z,38.60
2018-05-08T17:10:59.073Z,37.50
2018-05-08T17:13:26.600Z,38.30
2018-05-08T17:15:54.140Z,36.50
2018-05-08T17:18:21.665Z,35.70
2018-05-08T17:20:49.242Z,37.90
2018-05-08T17:23:17.676Z,36.70
2018-05-08T17:25:45.701Z,36.60
2018-05-08T17:28:13.222Z,37.00
2018-05-08T17:30:40.799Z,37.00
2018-05-08T17:33:08.326Z,38.30
2018-05-08T17:35:35.860Z,37.60
2018-05-08T17:38:03.365Z,37.00
2018-05-08T17:40:30.877Z,38.60
2018-05-08T17:42:58.407Z,38.00
2018-05-08T17:45:25.928Z,38.10
2018-05-08T17:47:54.113Z,40.40
2018-05-08T17:50:21.752Z,41.50
2018-05-08T17:52:49.342Z,39.20
2018-05-08T17:55:16.847Z,43.20
2018-05-08T17:57:44.393Z,46.70
2018-05-08T18:00:11.966Z,47.60
2018-05-08T18:02:40.259Z,52.50
2018-05-08T18:05:07.862Z,52.40
2018-05-08T18:07:35.370Z,56.10
2018-05-08T18:10:02.887Z,63.60
2018-05-08T18:12:31.959Z,69.80
2018-05-08T18:14:59.466Z,69.90
2018-05-08T18:17:27.899Z,75.70
2018-05-08T18:19:55.376Z,75.60
2018-05-08T18:22:22.880Z,77.10
2018-05-08T18:24:50.404Z,77.50
2018-05-08T18:27:17.950Z,79.90
2018-05-08T18:29:45.460Z,78.80
2018-05-08T18:32:13.772Z,81.90
2018-05-08T18:34:41.278Z,81.80
2018-05-08T18:37:10.043Z,79.80
2018-05-08T18:39:37.567Z,82.50
2018-05-08T18:42:05.089Z,83.10
2018-05-08T18:44:32.603Z,81.40
2018-05-08T18:47:00.162Z,82.90
2018-05-08T18:49:27.731Z,82.60
2018-05-08T18:51:55.239Z,82.00
2018-05-08T18:54:22.779Z,82.10
2018-05-08T18:56:50.307Z,83.20
2018-05-08T18:59:17.852Z,82.70
2018-05-08T19:01:45.398Z,84.80
2018-05-08T19:04:13.015Z,84.60
2018-05-08T19:06:40.634Z,85.70
2018-05-08T19:09:08.173Z,90.70
2018-05-08T19:11:42.051Z,91.30
2018-05-08T19:14:09.611Z,91.20
2018-05-08T19:16:37.175Z,92.80
2018-05-08T19:19:10.266Z,92.00
2018-05-08T19:21:37.790Z,92.50
2018-05-08T19:24:11.109Z,91.80
2018-05-08T19:26:38.650Z,91.70
2018-05-08T19:29:11.872Z,91.60
2018-05-08T19:31:39.478Z,90.90
2018-05-08T19:34:06.988Z,91.90
2018-05-08T19:36:40.115Z,92.10
2018-05-08T19:39:07.667Z,92.60
2018-05-08T19:41:35.197Z,92.40
2018-05-08T19:44:02.726Z,93.00
2018-05-08T19:46:30.279Z,92.90
2018-05-08T19:48:57.875Z,93.00
2018-05-08T19:51:25.440Z,93.00
2018-05-08T19:53:52.944Z,93.70
2018-05-08T19:56:20.458Z,92.30
2018-05-08T19:58:48.006Z,92.70
2018-05-08T20:01:15.510Z,92.90
2018-05-08T20:03:43.790Z,93.80
2018-05-08T20:06:12.101Z,93.60
2018-05-08T20:08:39.612Z,93.60
2018-05-08T20:11:07.142Z,94.40
2018-05-08T20:13:34.689Z,94.10
2018-05-08T20:16:02.230Z,93.90
2018-05-08T20:18:29.759Z,93.70
2018-05-08T20:20:57.638Z,94.00
2018-05-08T20:23:25.503Z,94.10
2018-05-08T20:25:53.083Z,94.40
2018-05-08T20:28:21.284Z,94.60
2018-05-08T20:30:48.970Z,94.70
2018-05-08T20:33:16.540Z,94.40
2018-05-08T20:35:44.110Z,94.10
2018-05-08T20:38:11.626Z,93.90
2018-05-08T20:40:39.997Z,94.20
2018-05-08T20:43:07.539Z,93.70
2018-05-08T20:45:35.811Z,94.20
2018-05-08T20:48:03.329Z,94.10
2018-05-08T20:50:30.892Z,95.60
2018-05-08T20:52:58.885Z,95.10
2018-05-08T20:55:26.409Z,95.40
2018-05-08T20:57:53.936Z,95.20
2018-05-08T21:00:21.454Z,95.50
2018-05-08T21:02:49.003Z,95.40
2018-05-08T21:05:16.534Z,95.40
2018-05-08T21:07:44.051Z,95.30
2018-05-08T21:10:11.558Z,95.30
2018-05-08T21:12:39.087Z,95.40
2018-05-08T21:15:07.370Z,94.90
2018-05-08T21:17:35.683Z,95.50
2018-05-08T21:20:03.287Z,95.50
2018-05-08T21:22:30.812Z,95.40
2018-05-08T21:24:58.330Z,95.40
2018-05-08T21:27:32.306Z,95.40
2018-05-08T21:30:05.461Z,95.30
2018-05-08T21:32:32.984Z,95.60
2018-05-08T21:35:00.526Z,95.30
2018-05-08T21:37:28.100Z,96.00
2018-05-08T21:39:55.646Z,95.60
2018-05-08T21:42:23.154Z,96.00
2018-05-08T21:44:50.689Z,95.90
2018-05-08T21:47:18.967Z,96.00
2018-05-08T21:49:46.476Z,95.90
2018-05-08T21:52:14.023Z,96.30
2018-05-08T21:54:41.540Z,95.90
2018-05-08T21:57:09.045Z,95.80
2018-05-08T21:59:36.660Z,95.90
2018-05-08T22:02:04.171Z,96.40
2018-05-08T22:04:31.684Z,96.50
2018-05-08T22:06:59.223Z,96.90
2018-05-08T22:09:26.734Z,96.70
2018-05-08T22:11:54.247Z,96.50
2018-05-08T22:14:21.769Z,96.90
2018-05-08T22:16:49.290Z,97.00
2018-05-08T22:19:17.610Z,96.90
2018-05-08T22:21:45.147Z,96.90
2018-05-08T22:24:13.442Z,96.80
2018-05-08T22:26:40.986Z,96.80
2018-05-08T22:29:08.518Z,97.20
2018-05-08T22:31:36.060Z,97.20
2018-05-08T22:34:03.566Z,97.10
2018-05-08T22:36:31.112Z,97.00
2018-05-08T22:38:59.393Z,97.10
2018-05-08T22:41:26.939Z,97.10
2018-05-08T22:43:54.450Z,97.20
2018-05-08T22:46:21.964Z,97.10
2018-05-08T22:48:49.478Z,97.30
2018-05-08T22:51:17.003Z,97.90
2018-05-08T22:53:44.516Z,97.80
2018-05-08T22:56:12.053Z,98.10
2018-05-08T22:58:39.569Z,97.80
2018-05-08T23:01:07.155Z,98.30
2018-05-08T23:03:34.738Z,98.30
2018-05-08T23:06:02.256Z,98.00
2018-05-08T23:08:30.529Z,98.30
2018-05-08T23:10:58.079Z,98.20
2018-05-08T23:13:25.587Z,98.50
2018-05-08T23:15:53.106Z,98.60
2018-05-08T23:18:21.337Z,99.10
2018-05-08T23:20:48.862Z,98.60
2018-05-08T23:23:16.378Z,98.70
2018-05-08T23:25:43.895Z,98.70
2018-05-08T23:28:11.457Z,99.40
2018-05-08T23:30:38.987Z,99.30
2018-05-08T23:33:07.283Z,99.20
2018-05-08T23:35:34.817Z,99.20
2018-05-08T23:38:02.322Z,99.40
2018-05-08T23:40:29.863Z,99.50
2018-05-08T23:42:58.145Z,99.70
2018-05-08T23:45:25.669Z,99.40
2018-05-08T23:47:53.273Z,99.70
2018-05-08T23:50:20.792Z,99.90
2018-05-08T23:52:48.323Z,99.90
2018-05-08T23:55:16.119Z,99.90
2018-05-08T23:57:43.638Z,99.90
